sensor_id;sensor_type;location;lat;lon;timestamp;P1;P2;P0
55754;PMS5003;41674;52.290;-1.474;2023-02-23T00:00:43;13;13;
55754;PMS5003;41674;52.290;-1.474;2023-02-23T00:03:13;18;13;
55754;PMS5003;41674;52.290;-1.474;2023-02-23T00:05:42;12;12;
55754;PMS5003;41674;52.290;-1.474;2023-02-23T00:08:12;14;12;
55754;PMS5003;41674;52.290;-1.474;2023-02-23T00:10:41;9;9;
55754;PMS5003;41674;52.290;-1.474;2023-02-23T00:13:11;15;13;
55754;PMS5003;41674;52.290;-1.474;2023-02-23T00:15:40;14;12;
55754;PMS5003;41674;52.290;-1.474;2023-02-23T00:18:10;13;11;
55754;PMS5003;41674;52.290;-1.474;2023-02-23T00:20:39;10;10;
55754;PMS5003;41674;52.290;-1.474;2023-02-23T00:23:09;14;12;
55754;PMS5003;41674;52.290;-1.474;2023-02-23T00:25:39;13;13;
55754;PMS5003;41674;52.290;-1.474;2023-02-23T00:28:09;9;8;
55754;PMS5003;41674;52.290;-1.474;2023-02-23T00:30:38;9;8;
55754;PMS5003;41674;52.290;-1.474;2023-02-23T00:33:08;10;9;
55754;PMS5003;41674;52.290;-1.474;2023-02-23T00:35:37;11;7;
55754;PMS5003;41674;52.290;-1.474;2023-02-23T00:38:07;9;9;
55754;PMS5003;41674;52.290;-1.474;2023-02-23T00:40:38;8;8;
55754;PMS5003;41674;52.290;-1.474;2023-02-23T00:43:06;10;9;
55754;PMS5003;41674;52.290;-1.474;2023-02-23T00:45:35;8;8;
55754;PMS5003;41674;52.290;-1.474;2023-02-23T00:48:05;8;8;
55754;PMS5003;41674;52.290;-1.474;2023-02-23T00:50:34;6;6;
55754;PMS5003;41674;52.290;-1.474;2023-02-23T00:53:04;8;8;
55754;PMS5003;41674;52.290;-1.474;2023-02-23T00:55:34;6;5;
55754;PMS5003;41674;52.290;-1.474;2023-02-23T00:58:03;6;6;
55754;PMS5003;41674;52.290;-1.474;2023-02-23T01:00:33;7;6;
55754;PMS5003;41674;52.290;-1.474;2023-02-23T01:03:03;9;7;
55754;PMS5003;41674;52.290;-1.474;2023-02-23T01:05:33;8;8;
55754;PMS5003;41674;52.290;-1.474;2023-02-23T01:08:02;10;8;
55754;PMS5003;41674;52.290;-1.474;2023-02-23T01:10:31;9;7;
55754;PMS5003;41674;52.290;-1.474;2023-02-23T01:13:01;9;9;
55754;PMS5003;41674;52.290;-1.474;2023-02-23T01:15:31;9;8;
55754;PMS5003;41674;52.290;-1.474;2023-02-23T01:18:00;6;6;
55754;PMS5003;41674;52.290;-1.474;2023-02-23T01:20:30;11;9;
55754;PMS5003;41674;52.290;-1.474;2023-02-23T01:22:59;10;10;
55754;PMS5003;41674;52.290;-1.474;2023-02-23T01:25:29;11;10;
55754;PMS5003;41674;52.290;-1.474;2023-02-23T01:27:59;9;9;
55754;PMS5003;41674;52.290;-1.474;2023-02-23T01:30:29;8;8;
55754;PMS5003;41674;52.290;-1.474;2023-02-23T01:32:58;10;10;
55754;PMS5003;41674;52.290;-1.474;2023-02-23T01:35:28;6;6;
55754;PMS5003;41674;52.290;-1.474;2023-02-23T01:37:58;6;6;
55754;PMS5003;41674;52.290;-1.474;2023-02-23T01:40:28;7;7;
55754;PMS5003;41674;52.290;-1.474;2023-02-23T01:42:58;11;7;
55754;PMS5003;41674;52.290;-1.474;2023-02-23T01:45:28;6;6;
55754;PMS5003;41674;52.290;-1.474;2023-02-23T01:47:58;9;6;
55754;PMS5003;41674;52.290;-1.474;2023-02-23T01:50:27;5;5;
55754;PMS5003;41674;52.290;-1.474;2023-02-23T01:52:56;5;5;
55754;PMS5003;41674;52.290;-1.474;2023-02-23T01:55:26;6;5;
55754;PMS5003;41674;52.290;-1.474;2023-02-23T01:57:57;5;5;
55754;PMS5003;41674;52.290;-1.474;2023-02-23T02:00:25;7;6;
55754;PMS5003;41674;52.290;-1.474;2023-02-23T02:02:54;6;4;
55754;PMS5003;41674;52.290;-1.474;2023-02-23T02:05:24;7;5;
55754;PMS5003;41674;52.290;-1.474;2023-02-23T02:07:54;4;4;
55754;PMS5003;41674;52.290;-1.474;2023-02-23T02:10:25;5;4;
55754;PMS5003;41674;52.290;-1.474;2023-02-23T02:12:53;6;5;
55754;PMS5003;41674;52.290;-1.474;2023-02-23T02:15:24;5;5;
55754;PMS5003;41674;52.290;-1.474;2023-02-23T02:17:55;9;6;
55754;PMS5003;41674;52.290;-1.474;2023-02-23T02:25:25;6;6;
55754;PMS5003;41674;52.290;-1.474;2023-02-23T02:27:58;6;6;
55754;PMS5003;41674;52.290;-1.474;2023-02-23T02:37:53;9;8;
55754;PMS5003;41674;52.290;-1.474;2023-02-23T02:40:21;8;6;
55754;PMS5003;41674;52.290;-1.474;2023-02-23T02:42:53;10;8;
55754;PMS5003;41674;52.290;-1.474;2023-02-23T02:45:21;9;8;
55754;PMS5003;41674;52.290;-1.474;2023-02-23T02:47:53;6;6;
55754;PMS5003;41674;52.290;-1.474;2023-02-23T02:50:20;7;6;
55754;PMS5003;41674;52.290;-1.474;2023-02-23T02:52:50;8;7;
55754;PMS5003;41674;52.290;-1.474;2023-02-23T02:55:20;6;6;
55754;PMS5003;41674;52.290;-1.474;2023-02-23T02:57:48;8;8;
55754;PMS5003;41674;52.290;-1.474;2023-02-23T03:00:18;7;5;
55754;PMS5003;41674;52.290;-1.474;2023-02-23T03:02:47;9;7;
55754;PMS5003;41674;52.290;-1.474;2023-02-23T03:05:17;9;8;
55754;PMS5003;41674;52.290;-1.474;2023-02-23T03:07:49;10;9;
55754;PMS5003;41674;52.290;-1.474;2023-02-23T03:10:18;7;7;
55754;PMS5003;41674;52.290;-1.474;2023-02-23T03:12:49;8;8;
55754;PMS5003;41674;52.290;-1.474;2023-02-23T03:15:19;7;7;
55754;PMS5003;41674;52.290;-1.474;2023-02-23T03:17:45;8;7;
55754;PMS5003;41674;52.290;-1.474;2023-02-23T03:20:16;8;8;
55754;PMS5003;41674;52.290;-1.474;2023-02-23T03:22:46;7;6;
55754;PMS5003;41674;52.290;-1.474;2023-02-23T03:25:15;7;6;
55754;PMS5003;41674;52.290;-1.474;2023-02-23T03:27:44;10;8;
55754;PMS5003;41674;52.290;-1.474;2023-02-23T03:30:15;7;6;
55754;PMS5003;41674;52.290;-1.474;2023-02-23T03:32:44;13;9;
55754;PMS5003;41674;52.290;-1.474;2023-02-23T03:35:13;11;8;
55754;PMS5003;41674;52.290;-1.474;2023-02-23T03:37:43;5;5;
55754;PMS5003;41674;52.290;-1.474;2023-02-23T03:40:12;4;3;
55754;PMS5003;41674;52.290;-1.474;2023-02-23T03:42:41;7;7;
55754;PMS5003;41674;52.290;-1.474;2023-02-23T03:45:11;9;8;
55754;PMS5003;41674;52.290;-1.474;2023-02-23T03:47:41;5;5;
55754;PMS5003;41674;52.290;-1.474;2023-02-23T03:50:15;8;7;
55754;PMS5003;41674;52.290;-1.474;2023-02-23T03:52:40;6;6;
55754;PMS5003;41674;52.290;-1.474;2023-02-23T03:55:11;7;6;
55754;PMS5003;41674;52.290;-1.474;2023-02-23T03:57:39;10;7;
55754;PMS5003;41674;52.290;-1.474;2023-02-23T04:00:10;8;5;
55754;PMS5003;41674;52.290;-1.474;2023-02-23T04:02:39;11;8;
55754;PMS5003;41674;52.290;-1.474;2023-02-23T04:05:09;6;6;
55754;PMS5003;41674;52.290;-1.474;2023-02-23T04:07:38;7;7;
55754;PMS5003;41674;52.290;-1.474;2023-02-23T04:10:08;10;9;
55754;PMS5003;41674;52.290;-1.474;2023-02-23T04:12:39;9;8;
55754;PMS5003;41674;52.290;-1.474;2023-02-23T04:15:07;8;6;
55754;PMS5003;41674;52.290;-1.474;2023-02-23T04:17:37;7;6;
55754;PMS5003;41674;52.290;-1.474;2023-02-23T04:20:07;7;6;
55754;PMS5003;41674;52.290;-1.474;2023-02-23T04:22:36;8;8;
55754;PMS5003;41674;52.290;-1.474;2023-02-23T04:25:06;5;5;
55754;PMS5003;41674;52.290;-1.474;2023-02-23T04:27:35;10;10;
55754;PMS5003;41674;52.290;-1.474;2023-02-23T04:30:05;7;7;
55754;PMS5003;41674;52.290;-1.474;2023-02-23T04:32:35;10;10;
55754;PMS5003;41674;52.290;-1.474;2023-02-23T04:35:05;9;8;
55754;PMS5003;41674;52.290;-1.474;2023-02-23T04:37:34;7;6;
55754;PMS5003;41674;52.290;-1.474;2023-02-23T04:40:05;8;8;
55754;PMS5003;41674;52.290;-1.474;2023-02-23T04:42:33;10;8;
55754;PMS5003;41674;52.290;-1.474;2023-02-23T04:45:03;7;6;
55754;PMS5003;41674;52.290;-1.474;2023-02-23T04:47:33;9;8;
55754;PMS5003;41674;52.290;-1.474;2023-02-23T04:50:03;8;8;
55754;PMS5003;41674;52.290;-1.474;2023-02-23T04:52:32;7;7;
55754;PMS5003;41674;52.290;-1.474;2023-02-23T04:55:02;10;6;
55754;PMS5003;41674;52.290;-1.474;2023-02-23T04:57:32;6;6;
55754;PMS5003;41674;52.290;-1.474;2023-02-23T05:00:01;7;5;
55754;PMS5003;41674;52.290;-1.474;2023-02-23T05:02:30;11;8;
55754;PMS5003;41674;52.290;-1.474;2023-02-23T05:05:00;7;7;
55754;PMS5003;41674;52.290;-1.474;2023-02-23T05:07:30;9;9;
55754;PMS5003;41674;52.290;-1.474;2023-02-23T05:09:59;9;8;
55754;PMS5003;41674;52.290;-1.474;2023-02-23T05:12:29;7;6;
55754;PMS5003;41674;52.290;-1.474;2023-02-23T05:14:59;8;7;
55754;PMS5003;41674;52.290;-1.474;2023-02-23T05:17:28;8;8;
55754;PMS5003;41674;52.290;-1.474;2023-02-23T05:19:57;9;8;
55754;PMS5003;41674;52.290;-1.474;2023-02-23T05:22:27;7;7;
55754;PMS5003;41674;52.290;-1.474;2023-02-23T05:24:57;11;9;
55754;PMS5003;41674;52.290;-1.474;2023-02-23T05:27:26;7;7;
55754;PMS5003;41674;52.290;-1.474;2023-02-23T05:29:56;9;9;
55754;PMS5003;41674;52.290;-1.474;2023-02-23T05:32:26;6;6;
55754;PMS5003;41674;52.290;-1.474;2023-02-23T05:34:56;6;5;
55754;PMS5003;41674;52.290;-1.474;2023-02-23T05:37:25;3;3;
55754;PMS5003;41674;52.290;-1.474;2023-02-23T05:39:54;9;9;
55754;PMS5003;41674;52.290;-1.474;2023-02-23T05:42:24;3;3;
55754;PMS5003;41674;52.290;-1.474;2023-02-23T05:44:54;5;5;
55754;PMS5003;41674;52.290;-1.474;2023-02-23T05:47:23;2;2;
55754;PMS5003;41674;52.290;-1.474;2023-02-23T05:49:53;5;4;
55754;PMS5003;41674;52.290;-1.474;2023-02-23T05:52:23;4;4;
55754;PMS5003;41674;52.290;-1.474;2023-02-23T05:54:52;2;2;
55754;PMS5003;41674;52.290;-1.474;2023-02-23T05:57:22;3;3;
55754;PMS5003;41674;52.290;-1.474;2023-02-23T05:59:52;3;3;
55754;PMS5003;41674;52.290;-1.474;2023-02-23T06:02:22;5;4;
55754;PMS5003;41674;52.290;-1.474;2023-02-23T06:04:51;5;5;
55754;PMS5003;41674;52.290;-1.474;2023-02-23T06:07:21;4;4;
55754;PMS5003;41674;52.290;-1.474;2023-02-23T06:09:51;2;2;
55754;PMS5003;41674;52.290;-1.474;2023-02-23T06:12:20;4;3;
55754;PMS5003;41674;52.290;-1.474;2023-02-23T06:14:50;4;2;
55754;PMS5003;41674;52.290;-1.474;2023-02-23T06:17:20;5;4;
55754;PMS5003;41674;52.290;-1.474;2023-02-23T06:19:49;4;3;
55754;PMS5003;41674;52.290;-1.474;2023-02-23T06:22:19;5;4;
55754;PMS5003;41674;52.290;-1.474;2023-02-23T06:24:49;9;6;
55754;PMS5003;41674;52.290;-1.474;2023-02-23T06:27:19;6;5;
55754;PMS5003;41674;52.290;-1.474;2023-02-23T06:29:48;9;7;
55754;PMS5003;41674;52.290;-1.474;2023-02-23T06:32:18;9;8;
55754;PMS5003;41674;52.290;-1.474;2023-02-23T06:34:48;8;8;
55754;PMS5003;41674;52.290;-1.474;2023-02-23T06:37:17;11;7;
55754;PMS5003;41674;52.290;-1.474;2023-02-23T06:39:47;12;8;
55754;PMS5003;41674;52.290;-1.474;2023-02-23T06:42:17;11;8;
55754;PMS5003;41674;52.290;-1.474;2023-02-23T06:44:46;9;6;
55754;PMS5003;41674;52.290;-1.474;2023-02-23T06:47:16;6;4;
55754;PMS5003;41674;52.290;-1.474;2023-02-23T06:49:45;5;4;
55754;PMS5003;41674;52.290;-1.474;2023-02-23T06:52:15;7;5;
55754;PMS5003;41674;52.290;-1.474;2023-02-23T06:54:45;8;5;
55754;PMS5003;41674;52.290;-1.474;2023-02-23T06:57:15;6;3;
55754;PMS5003;41674;52.290;-1.474;2023-02-23T06:59:44;4;4;
55754;PMS5003;41674;52.290;-1.474;2023-02-23T07:02:14;3;3;
55754;PMS5003;41674;52.290;-1.474;2023-02-23T07:04:43;8;4;
55754;PMS5003;41674;52.290;-1.474;2023-02-23T07:07:13;3;3;
55754;PMS5003;41674;52.290;-1.474;2023-02-23T07:09:43;3;3;
55754;PMS5003;41674;52.290;-1.474;2023-02-23T07:12:12;4;4;
55754;PMS5003;41674;52.290;-1.474;2023-02-23T07:14:43;6;6;
55754;PMS5003;41674;52.290;-1.474;2023-02-23T07:17:11;3;3;
55754;PMS5003;41674;52.290;-1.474;2023-02-23T07:22:11;6;3;
55754;PMS5003;41674;52.290;-1.474;2023-02-23T07:24:40;7;2;
55754;PMS5003;41674;52.290;-1.474;2023-02-23T07:27:10;4;4;
55754;PMS5003;41674;52.290;-1.474;2023-02-23T07:29:40;4;3;
55754;PMS5003;41674;52.290;-1.474;2023-02-23T07:32:09;9;4;
55754;PMS5003;41674;52.290;-1.474;2023-02-23T07:34:39;4;4;
55754;PMS5003;41674;52.290;-1.474;2023-02-23T07:37:09;3;2;
55754;PMS5003;41674;52.290;-1.474;2023-02-23T07:39:37;5;3;
55754;PMS5003;41674;52.290;-1.474;2023-02-23T07:42:07;2;2;
55754;PMS5003;41674;52.290;-1.474;2023-02-23T07:44:37;1;1;
55754;PMS5003;41674;52.290;-1.474;2023-02-23T07:47:07;4;3;
55754;PMS5003;41674;52.290;-1.474;2023-02-23T07:49:36;7;2;
55754;PMS5003;41674;52.290;-1.474;2023-02-23T07:52:06;6;3;
55754;PMS5003;41674;52.290;-1.474;2023-02-23T07:54:36;6;5;
55754;PMS5003;41674;52.290;-1.474;2023-02-23T07:57:05;5;3;
55754;PMS5003;41674;52.290;-1.474;2023-02-23T07:59:35;3;3;
55754;PMS5003;41674;52.290;-1.474;2023-02-23T08:02:05;4;3;
55754;PMS5003;41674;52.290;-1.474;2023-02-23T08:04:34;6;3;
55754;PMS5003;41674;52.290;-1.474;2023-02-23T08:07:04;3;3;
55754;PMS5003;41674;52.290;-1.474;2023-02-23T08:09:34;4;2;
55754;PMS5003;41674;52.290;-1.474;2023-02-23T08:12:04;4;4;
55754;PMS5003;41674;52.290;-1.474;2023-02-23T08:14:34;4;2;
55754;PMS5003;41674;52.290;-1.474;2023-02-23T08:17:03;5;3;
55754;PMS5003;41674;52.290;-1.474;2023-02-23T08:19:33;3;3;
55754;PMS5003;41674;52.290;-1.474;2023-02-23T08:22:02;5;4;
55754;PMS5003;41674;52.290;-1.474;2023-02-23T08:24:32;3;3;
55754;PMS5003;41674;52.290;-1.474;2023-02-23T08:27:02;3;3;
55754;PMS5003;41674;52.290;-1.474;2023-02-23T08:29:32;5;4;
55754;PMS5003;41674;52.290;-1.474;2023-02-23T08:32:01;4;4;
55754;PMS5003;41674;52.290;-1.474;2023-02-23T08:34:31;8;3;
55754;PMS5003;41674;52.290;-1.474;2023-02-23T08:37:01;5;5;
55754;PMS5003;41674;52.290;-1.474;2023-02-23T08:39:30;6;3;
55754;PMS5003;41674;52.290;-1.474;2023-02-23T08:42:00;3;3;
55754;PMS5003;41674;52.290;-1.474;2023-02-23T08:44:30;5;3;
55754;PMS5003;41674;52.290;-1.474;2023-02-23T08:46:59;6;6;
55754;PMS5003;41674;52.290;-1.474;2023-02-23T08:49:29;4;2;
55754;PMS5003;41674;52.290;-1.474;2023-02-23T08:51:59;6;6;
55754;PMS5003;41674;52.290;-1.474;2023-02-23T08:54:28;4;3;
55754;PMS5003;41674;52.290;-1.474;2023-02-23T08:56:58;8;5;
55754;PMS5003;41674;52.290;-1.474;2023-02-23T08:59:28;6;4;
55754;PMS5003;41674;52.290;-1.474;2023-02-23T09:01:58;6;5;
55754;PMS5003;41674;52.290;-1.474;2023-02-23T09:04:30;5;4;
55754;PMS5003;41674;52.290;-1.474;2023-02-23T09:06:57;5;3;
55754;PMS5003;41674;52.290;-1.474;2023-02-23T09:09:27;8;6;
55754;PMS5003;41674;52.290;-1.474;2023-02-23T09:11:56;7;5;
55754;PMS5003;41674;52.290;-1.474;2023-02-23T09:14:26;6;4;
55754;PMS5003;41674;52.290;-1.474;2023-02-23T09:16:55;6;3;
55754;PMS5003;41674;52.290;-1.474;2023-02-23T09:19:25;6;3;
55754;PMS5003;41674;52.290;-1.474;2023-02-23T09:21:55;11;7;
55754;PMS5003;41674;52.290;-1.474;2023-02-23T09:24:25;7;6;
55754;PMS5003;41674;52.290;-1.474;2023-02-23T09:26:54;5;5;
55754;PMS5003;41674;52.290;-1.474;2023-02-23T09:29:24;5;2;
55754;PMS5003;41674;52.290;-1.474;2023-02-23T09:31:54;10;6;
55754;PMS5003;41674;52.290;-1.474;2023-02-23T09:34:23;7;5;
55754;PMS5003;41674;52.290;-1.474;2023-02-23T09:36:53;7;4;
55754;PMS5003;41674;52.290;-1.474;2023-02-23T09:39:22;5;5;
55754;PMS5003;41674;52.290;-1.474;2023-02-23T09:44:25;8;3;
55754;PMS5003;41674;52.290;-1.474;2023-02-23T09:46:55;6;5;
55754;PMS5003;41674;52.290;-1.474;2023-02-23T09:49:22;3;3;
55754;PMS5003;41674;52.290;-1.474;2023-02-23T09:51:52;2;2;
55754;PMS5003;41674;52.290;-1.474;2023-02-23T09:54:20;6;5;
55754;PMS5003;41674;52.290;-1.474;2023-02-23T09:56:49;3;3;
55754;PMS5003;41674;52.290;-1.474;2023-02-23T09:59:19;4;3;
55754;PMS5003;41674;52.290;-1.474;2023-02-23T10:01:52;3;2;
55754;PMS5003;41674;52.290;-1.474;2023-02-23T10:04:19;7;4;
55754;PMS5003;41674;52.290;-1.474;2023-02-23T10:06:50;7;3;
55754;PMS5003;41674;52.290;-1.474;2023-02-23T10:09:20;6;5;
55754;PMS5003;41674;52.290;-1.474;2023-02-23T10:11:49;4;3;
55754;PMS5003;41674;52.290;-1.474;2023-02-23T10:14:21;3;3;
55754;PMS5003;41674;52.290;-1.474;2023-02-23T10:16:52;3;2;
55754;PMS5003;41674;52.290;-1.474;2023-02-23T10:19:18;6;1;
55754;PMS5003;41674;52.290;-1.474;2023-02-23T10:21:47;4;3;
55754;PMS5003;41674;52.290;-1.474;2023-02-23T10:24:17;3;3;
55754;PMS5003;41674;52.290;-1.474;2023-02-23T10:26:46;3;3;
55754;PMS5003;41674;52.290;-1.474;2023-02-23T10:29:19;2;2;
55754;PMS5003;41674;52.290;-1.474;2023-02-23T10:31:45;3;3;
55754;PMS5003;41674;52.290;-1.474;2023-02-23T10:34:15;5;5;
55754;PMS5003;41674;52.290;-1.474;2023-02-23T10:36:46;4;4;
55754;PMS5003;41674;52.290;-1.474;2023-02-23T10:39:13;6;4;
55754;PMS5003;41674;52.290;-1.474;2023-02-23T10:41:43;3;3;
55754;PMS5003;41674;52.290;-1.474;2023-02-23T10:44:16;6;3;
55754;PMS5003;41674;52.290;-1.474;2023-02-23T10:46:43;7;5;
55754;PMS5003;41674;52.290;-1.474;2023-02-23T10:49:13;6;4;
55754;PMS5003;41674;52.290;-1.474;2023-02-23T10:51:42;8;3;
55754;PMS5003;41674;52.290;-1.474;2023-02-23T10:56:42;2;2;
55754;PMS5003;41674;52.290;-1.474;2023-02-23T10:59:14;6;3;
55754;PMS5003;41674;52.290;-1.474;2023-02-23T11:01:41;4;3;
55754;PMS5003;41674;52.290;-1.474;2023-02-23T11:04:12;5;4;
55754;PMS5003;41674;52.290;-1.474;2023-02-23T11:06:40;3;3;
55754;PMS5003;41674;52.290;-1.474;2023-02-23T11:11:39;3;3;
55754;PMS5003;41674;52.290;-1.474;2023-02-23T11:14:15;7;3;
55754;PMS5003;41674;52.290;-1.474;2023-02-23T11:16:38;2;2;
55754;PMS5003;41674;52.290;-1.474;2023-02-23T11:19:15;2;2;
55754;PMS5003;41674;52.290;-1.474;2023-02-23T11:21:38;5;3;
55754;PMS5003;41674;52.290;-1.474;2023-02-23T11:24:10;2;1;
55754;PMS5003;41674;52.290;-1.474;2023-02-23T11:26:38;3;1;
55754;PMS5003;41674;52.290;-1.474;2023-02-23T11:29:12;2;2;
55754;PMS5003;41674;52.290;-1.474;2023-02-23T11:31:36;1;1;
55754;PMS5003;41674;52.290;-1.474;2023-02-23T11:34:06;4;4;
55754;PMS5003;41674;52.290;-1.474;2023-02-23T11:36:36;2;2;
55754;PMS5003;41674;52.290;-1.474;2023-02-23T11:39:06;6;3;
55754;PMS5003;41674;52.290;-1.474;2023-02-23T11:41:35;2;2;
55754;PMS5003;41674;52.290;-1.474;2023-02-23T11:44:05;5;3;
55754;PMS5003;41674;52.290;-1.474;2023-02-23T11:46:35;3;1;
55754;PMS5003;41674;52.290;-1.474;2023-02-23T11:49:04;5;4;
55754;PMS5003;41674;52.290;-1.474;2023-02-23T11:51:34;5;3;
55754;PMS5003;41674;52.290;-1.474;2023-02-23T11:54:03;4;2;
55754;PMS5003;41674;52.290;-1.474;2023-02-23T11:56:33;2;1;
55754;PMS5003;41674;52.290;-1.474;2023-02-23T11:59:03;2;2;
55754;PMS5003;41674;52.290;-1.474;2023-02-23T12:01:34;2;2;
55754;PMS5003;41674;52.290;-1.474;2023-02-23T12:04:01;5;3;
55754;PMS5003;41674;52.290;-1.474;2023-02-23T12:06:32;2;2;
55754;PMS5003;41674;52.290;-1.474;2023-02-23T12:09:03;5;3;
55754;PMS5003;41674;52.290;-1.474;2023-02-23T12:11:31;4;3;
55754;PMS5003;41674;52.290;-1.474;2023-02-23T12:14:01;4;3;
55754;PMS5003;41674;52.290;-1.474;2023-02-23T12:16:31;4;3;
55754;PMS5003;41674;52.290;-1.474;2023-02-23T12:19:00;3;3;
55754;PMS5003;41674;52.290;-1.474;2023-02-23T12:21:29;3;2;
55754;PMS5003;41674;52.290;-1.474;2023-02-23T12:24:02;4;3;
55754;PMS5003;41674;52.290;-1.474;2023-02-23T12:26:28;4;3;
55754;PMS5003;41674;52.290;-1.474;2023-02-23T12:28:58;3;3;
55754;PMS5003;41674;52.290;-1.474;2023-02-23T12:31:28;2;2;
55754;PMS5003;41674;52.290;-1.474;2023-02-23T12:33:58;3;2;
55754;PMS5003;41674;52.290;-1.474;2023-02-23T12:36:29;2;2;
55754;PMS5003;41674;52.290;-1.474;2023-02-23T12:38:56;4;3;
55754;PMS5003;41674;52.290;-1.474;2023-02-23T12:41:28;3;3;
55754;PMS5003;41674;52.290;-1.474;2023-02-23T12:43:56;6;4;
55754;PMS5003;41674;52.290;-1.474;2023-02-23T12:46:25;3;2;
55754;PMS5003;41674;52.290;-1.474;2023-02-23T12:48:56;3;3;
55754;PMS5003;41674;52.290;-1.474;2023-02-23T12:51:25;5;3;
55754;PMS5003;41674;52.290;-1.474;2023-02-23T12:53:54;2;2;
55754;PMS5003;41674;52.290;-1.474;2023-02-23T12:56:30;1;1;
55754;PMS5003;41674;52.290;-1.474;2023-02-23T12:58:55;3;3;
55754;PMS5003;41674;52.290;-1.474;2023-02-23T13:01:24;3;3;
55754;PMS5003;41674;52.290;-1.474;2023-02-23T13:03:59;5;4;
55754;PMS5003;41674;52.290;-1.474;2023-02-23T13:06:25;6;5;
55754;PMS5003;41674;52.290;-1.474;2023-02-23T13:08:55;4;4;
55754;PMS5003;41674;52.290;-1.474;2023-02-23T13:11:23;4;3;
55754;PMS5003;41674;52.290;-1.474;2023-02-23T13:13:52;3;3;
55754;PMS5003;41674;52.290;-1.474;2023-02-23T13:16:22;4;4;
55754;PMS5003;41674;52.290;-1.474;2023-02-23T13:18:51;6;4;
55754;PMS5003;41674;52.290;-1.474;2023-02-23T13:21:21;5;3;
55754;PMS5003;41674;52.290;-1.474;2023-02-23T13:23:53;7;4;
55754;PMS5003;41674;52.290;-1.474;2023-02-23T13:26:20;3;3;
55754;PMS5003;41674;52.290;-1.474;2023-02-23T13:28:51;4;4;
55754;PMS5003;41674;52.290;-1.474;2023-02-23T13:31:21;3;2;
55754;PMS5003;41674;52.290;-1.474;2023-02-23T13:33:48;5;4;
55754;PMS5003;41674;52.290;-1.474;2023-02-23T13:36:18;2;2;
55754;PMS5003;41674;52.290;-1.474;2023-02-23T13:38:51;5;2;
55754;PMS5003;41674;52.290;-1.474;2023-02-23T13:41:20;3;2;
55754;PMS5003;41674;52.290;-1.474;2023-02-23T13:43:47;6;3;
55754;PMS5003;41674;52.290;-1.474;2023-02-23T13:46:18;3;3;
55754;PMS5003;41674;52.290;-1.474;2023-02-23T13:48:48;4;4;
55754;PMS5003;41674;52.290;-1.474;2023-02-23T13:51:17;4;4;
55754;PMS5003;41674;52.290;-1.474;2023-02-23T13:53:46;2;2;
55754;PMS5003;41674;52.290;-1.474;2023-02-23T13:56:15;5;4;
55754;PMS5003;41674;52.290;-1.474;2023-02-23T13:58:45;3;3;
55754;PMS5003;41674;52.290;-1.474;2023-02-23T14:01:14;4;4;
55754;PMS5003;41674;52.290;-1.474;2023-02-23T14:03:44;5;5;
55754;PMS5003;41674;52.290;-1.474;2023-02-23T14:06:13;6;4;
55754;PMS5003;41674;52.290;-1.474;2023-02-23T14:08:42;6;4;
55754;PMS5003;41674;52.290;-1.474;2023-02-23T14:13:44;7;6;
55754;PMS5003;41674;52.290;-1.474;2023-02-23T14:16:12;5;5;
55754;PMS5003;41674;52.290;-1.474;2023-02-23T14:18:50;6;5;
55754;PMS5003;41674;52.290;-1.474;2023-02-23T14:21:12;5;5;
55754;PMS5003;41674;52.290;-1.474;2023-02-23T14:23:49;5;4;
55754;PMS5003;41674;52.290;-1.474;2023-02-23T14:26:11;6;6;
55754;PMS5003;41674;52.290;-1.474;2023-02-23T14:28:39;6;5;
55754;PMS5003;41674;52.290;-1.474;2023-02-23T14:38:37;5;4;
55754;PMS5003;41674;52.290;-1.474;2023-02-23T14:41:07;5;5;
55754;PMS5003;41674;52.290;-1.474;2023-02-23T14:43:38;4;4;
55754;PMS5003;41674;52.290;-1.474;2023-02-23T14:46:08;6;6;
55754;PMS5003;41674;52.290;-1.474;2023-02-23T14:48:43;5;5;
55754;PMS5003;41674;52.290;-1.474;2023-02-23T14:51:09;6;3;
55754;PMS5003;41674;52.290;-1.474;2023-02-23T14:53:34;7;7;
55754;PMS5003;41674;52.290;-1.474;2023-02-23T14:56:04;9;8;
55754;PMS5003;41674;52.290;-1.474;2023-02-23T14:58:33;7;6;
55754;PMS5003;41674;52.290;-1.474;2023-02-23T15:01:03;6;6;
55754;PMS5003;41674;52.290;-1.474;2023-02-23T15:03:33;6;6;
55754;PMS5003;41674;52.290;-1.474;2023-02-23T15:06:03;6;6;
55754;PMS5003;41674;52.290;-1.474;2023-02-23T15:08:32;7;7;
55754;PMS5003;41674;52.290;-1.474;2023-02-23T15:11:02;10;7;
55754;PMS5003;41674;52.290;-1.474;2023-02-23T15:13:31;6;6;
55754;PMS5003;41674;52.290;-1.474;2023-02-23T15:16:02;9;8;
55754;PMS5003;41674;52.290;-1.474;2023-02-23T15:18:31;11;9;
55754;PMS5003;41674;52.290;-1.474;2023-02-23T15:21:00;7;6;
55754;PMS5003;41674;52.290;-1.474;2023-02-23T15:23:32;8;8;
55754;PMS5003;41674;52.290;-1.474;2023-02-23T15:25:59;8;8;
55754;PMS5003;41674;52.290;-1.474;2023-02-23T15:28:28;10;8;
55754;PMS5003;41674;52.290;-1.474;2023-02-23T15:30:59;10;7;
55754;PMS5003;41674;52.290;-1.474;2023-02-23T15:33:28;7;5;
55754;PMS5003;41674;52.290;-1.474;2023-02-23T15:36:01;8;6;
55754;PMS5003;41674;52.290;-1.474;2023-02-23T15:38:27;5;5;
55754;PMS5003;41674;52.290;-1.474;2023-02-23T15:40:57;9;6;
55754;PMS5003;41674;52.290;-1.474;2023-02-23T15:43:26;3;3;
55754;PMS5003;41674;52.290;-1.474;2023-02-23T15:45:57;7;7;
55754;PMS5003;41674;52.290;-1.474;2023-02-23T15:48:36;7;7;
55754;PMS5003;41674;52.290;-1.474;2023-02-23T15:50:55;8;7;
55754;PMS5003;41674;52.290;-1.474;2023-02-23T15:53:27;5;5;
55754;PMS5003;41674;52.290;-1.474;2023-02-23T15:55:55;5;4;
55754;PMS5003;41674;52.290;-1.474;2023-02-23T15:58:25;5;4;
55754;PMS5003;41674;52.290;-1.474;2023-02-23T16:00:54;5;3;
55754;PMS5003;41674;52.290;-1.474;2023-02-23T16:03:24;6;5;
55754;PMS5003;41674;52.290;-1.474;2023-02-23T16:05:54;5;5;
55754;PMS5003;41674;52.290;-1.474;2023-02-23T16:08:23;5;4;
55754;PMS5003;41674;52.290;-1.474;2023-02-23T16:10:52;6;3;
55754;PMS5003;41674;52.290;-1.474;2023-02-23T16:13:21;3;2;
55754;PMS5003;41674;52.290;-1.474;2023-02-23T16:15:52;2;2;
55754;PMS5003;41674;52.290;-1.474;2023-02-23T16:18:21;5;4;
55754;PMS5003;41674;52.290;-1.474;2023-02-23T16:20:51;7;5;
55754;PMS5003;41674;52.290;-1.474;2023-02-23T16:23:23;3;3;
55754;PMS5003;41674;52.290;-1.474;2023-02-23T16:25:51;4;4;
55754;PMS5003;41674;52.290;-1.474;2023-02-23T16:28:19;5;5;
55754;PMS5003;41674;52.290;-1.474;2023-02-23T16:30:49;4;4;
55754;PMS5003;41674;52.290;-1.474;2023-02-23T16:33:20;5;3;
55754;PMS5003;41674;52.290;-1.474;2023-02-23T16:35:48;5;5;
55754;PMS5003;41674;52.290;-1.474;2023-02-23T16:38:21;10;6;
55754;PMS5003;41674;52.290;-1.474;2023-02-23T16:40:46;8;7;
55754;PMS5003;41674;52.290;-1.474;2023-02-23T16:43:16;2;2;
55754;PMS5003;41674;52.290;-1.474;2023-02-23T16:45:46;4;4;
55754;PMS5003;41674;52.290;-1.474;2023-02-23T16:48:16;4;4;
55754;PMS5003;41674;52.290;-1.474;2023-02-23T16:50:45;2;1;
55754;PMS5003;41674;52.290;-1.474;2023-02-23T16:53:15;3;3;
55754;PMS5003;41674;52.290;-1.474;2023-02-23T16:55:46;1;1;
55754;PMS5003;41674;52.290;-1.474;2023-02-23T16:58:14;3;2;
55754;PMS5003;41674;52.290;-1.474;2023-02-23T17:00:43;4;4;
55754;PMS5003;41674;52.290;-1.474;2023-02-23T17:03:14;3;3;
55754;PMS5003;41674;52.290;-1.474;2023-02-23T17:05:43;2;2;
55754;PMS5003;41674;52.290;-1.474;2023-02-23T17:08:13;5;4;
55754;PMS5003;41674;52.290;-1.474;2023-02-23T17:10:43;4;2;
55754;PMS5003;41674;52.290;-1.474;2023-02-23T17:13:14;5;3;
55754;PMS5003;41674;52.290;-1.474;2023-02-23T17:15:42;5;4;
55754;PMS5003;41674;52.290;-1.474;2023-02-23T17:18:11;5;5;